Αναφορές METAR

 

LGKZ - Kozani (civ/Army, Greece
Distance from station: ΝΔ 41km
Ενημερώθηκε: 03/08/2021 20:20

 Ανεμος από ΒΔ
Ανεμος: ΒΔ 11 km/h
Θερμοκρασία: 33°C
Σημείο Δρόσου: 2°C
Υγρασία: 14%
Βαρόμετρο: 1017 hPa
2021/08/03 17:20 LGKZ 031720Z AUTO 32006KT 290V360 //// // ////// 33/02 Q1017 RE//
LGTS - Thessaloniki/Mik, Greece
Distance from station: Α 64km
Ενημερώθηκε: 03/08/2021 20:20
Few Clouds
Few Clouds
 Ανεμος από ΝΔ
Ανεμος: ΝΔ 11 km/h
Θερμοκρασία: 36°C
Σημείο Δρόσου: 13°C
Υγρασία: 25%
Βαρόμετρο: 1011 hPa
Clouds: Few Clouds
Visibility: 10 km
Cloud details: Few Clouds 914 m
2021/08/03 17:20 LGTS 031720Z 23006KT 9999 FEW030 36/13 Q1011 NOSIG
 
LGIO - Ioannina, Greece
Distance from station: ΝΔ 149km
Ενημερώθηκε: 03/08/2021 20:20
Αίθριος
Αίθριος
 Ανεμος από ΔΒΔ
Ανεμος: ΔΒΔ 9 km/h
Θερμοκρασία: 33°C
Σημείο Δρόσου: 10°C
Υγρασία: 24%
Βαρόμετρο: 1016 hPa
Περίληψη: Αίθριος
Visibility: greater than 10 km
2021/08/03 17:20 LGIO 031720Z 30005KT CAVOK 33/10 Q1016
LGBL - Nea Anchialos, Greece
Distance from station: ΝΝΑ 154km
Ενημερώθηκε: 03/08/2021 20:20
Αίθριος
Αίθριος
 Ανεμος από ΝΑ
Ανεμος: ΝΑ 7 km/h
Θερμοκρασία: 34°C
Σημείο Δρόσου: 6°C
Υγρασία: 17%
Βαρόμετρο: 1011 hPa
Περίληψη: Αίθριος
Visibility: greater than 10 km
2021/08/03 17:20 LGBL 031720Z 14004KT CAVOK 34/06 Q1011
 
LGSK - Skiathos Island, Greece
Distance from station: ΝΑ 185km
Ενημερώθηκε: 03/08/2021 19:50
Αίθριος
Αίθριος
 Ανεμος από varies
Ανεμος: varies 6 km/h
Θερμοκρασία: 34°C
Heat Index: 37°C
Σημείο Δρόσου: 21°C
Υγρασία: 47%
Βαρόμετρο: 1011 hPa
Περίληψη: Αίθριος
Visibility: greater than 10 km
2021/08/03 16:50 LGSK 031650Z VRB03KT CAVOK 34/21 Q1011
LGKV - Kavala/Chrisoupo, Greece
Distance from station: ΑΒΑ 208km
Ενημερώθηκε: 03/08/2021 20:20
Αίθριος
Αίθριος
 Ανεμος από ΒΑ
Ανεμος: ΒΑ 9 km/h
Θερμοκρασία: 31°C
Heat Index: 33°C
Σημείο Δρόσου: 20°C
Υγρασία: 52%
Βαρόμετρο: 1010 hPa
Περίληψη: Αίθριος
Visibility: greater than 10 km
2021/08/03 17:20 LGKV 031720Z 04005KT CAVOK 31/20 Q1010
 
LGPZ - Preveza/Aktion, Greece
Distance from station: ΝΔ 217km
Ενημερώθηκε: 03/08/2021 20:20
Αίθριος
Αίθριος
 Ανεμος από ΝΝΔ
Ανεμος: ΝΝΔ 9 km/h
Θερμοκρασία: 29°C
Heat Index: 33°C
Σημείο Δρόσου: 24°C
Υγρασία: 74%
Βαρόμετρο: 1013 hPa
Περίληψη: Αίθριος
Visibility: greater than 10 km
2021/08/03 17:20 LGPZ 031720Z 21005KT CAVOK 29/24 Q1013
LGKR - Ioannis Kapodist, Greece
Distance from station: ΔΝΔ 219km
Ενημερώθηκε: 03/08/2021 20:50
Αίθριος
Αίθριος
 Ανεμος από Δ
Ανεμος: Δ 6 km/h
Θερμοκρασία: 34°C
Heat Index: 41°C
Σημείο Δρόσου: 24°C
Υγρασία: 56%
Βαρόμετρο: 1012 hPa
Περίληψη: Αίθριος
Visibility: greater than 10 km
2021/08/03 17:50 LGKR 031750Z 27003KT CAVOK 34/24 Q1012 NOSIG
 
LGSY - Skiros, Greece
Distance from station: ΝΑ 261km
Ενημερώθηκε: 03/08/2021 19:50
Αίθριος
Αίθριος
 Ανεμος από ΑΒΑ
Ανεμος: ΑΒΑ 11 km/h
Θερμοκρασία: 33°C
Heat Index: 38°C
Σημείο Δρόσου: 23°C
Υγρασία: 56%
Βαρόμετρο: 1011 hPa
Περίληψη: Αίθριος
Visibility: greater than 10 km
2021/08/03 16:50 LGSY 031650Z 07006KT CAVOK 33/23 Q1011 BLU
LGLM - Limnos Island Ar, Greece
Distance from station: ΑΝΑ 266km
Ενημερώθηκε: 03/08/2021 20:20
Αίθριος
Αίθριος
 Ανεμος από calm
Ανεμος: Απνοια
Θερμοκρασία: 34°C
Σημείο Δρόσου: 14°C
Υγρασία: 30%
Βαρόμετρο: 1011 hPa
Περίληψη: Αίθριος
Visibility: greater than 10 km
2021/08/03 17:20 LGLM 031720Z 00000KT CAVOK 34/14 Q1011
 
LGRX - Araxos (civ/Afb), Greece
Distance from station: ΝΝΔ 271km
Ενημερώθηκε: 03/08/2021 20:20
Αίθριος
Αίθριος
 Ανεμος από Δ
Ανεμος: Δ 13 km/h
Θερμοκρασία: 33°C
Σημείο Δρόσου: 17°C
Υγρασία: 38%
Βαρόμετρο: 1012 hPa
Περίληψη: Αίθριος
Visibility: greater than 10 km
2021/08/03 17:20 LGRX 031720Z 28007KT CAVOK 33/17 Q1012
LGEL - Elefsis (hel-Afb, Greece
Distance from station: ΝΝΑ 297km
Ενημερώθηκε: 03/08/2021 20:20
Αίθριος
Αίθριος
 Ανεμος από calm
Ανεμος: Απνοια
Θερμοκρασία: 35°C
Σημείο Δρόσου: 16°C
Υγρασία: 32%
Βαρόμετρο: 1010 hPa
Περίληψη: Αίθριος
Visibility: greater than 10 km
2021/08/03 17:20 LGEL 031720Z 00000KT CAVOK 35/16 Q1010
 
LGAD - Andravida (civ/A, Greece
Distance from station: ΝΝΔ 301km
Ενημερώθηκε: 03/08/2021 20:20
Αίθριος
Αίθριος
 Ανεμος από ΒΒΑ
Ανεμος: ΒΒΑ 7 km/h
Θερμοκρασία: 32°C
Heat Index: 34°C
Σημείο Δρόσου: 19°C
Υγρασία: 46%
Βαρόμετρο: 1012 hPa
Περίληψη: Αίθριος
Visibility: greater than 10 km
2021/08/03 17:20 LGAD 031720Z 03004KT CAVOK 32/19 Q1012
LGKF - Kefallinia, Greece
Distance from station: ΝΝΔ 305km
Ενημερώθηκε: 03/08/2021 19:50
Αίθριος
Αίθριος
 Ανεμος από ΒΔ
Ανεμος: ΒΔ 13 km/h
Θερμοκρασία: 37°C
Σημείο Δρόσου: 15°C
Υγρασία: 27%
Βαρόμετρο: 1012 hPa
Περίληψη: Αίθριος
Visibility: greater than 10 km
2021/08/03 16:50 LGKF 031650Z 32007KT CAVOK 37/15 Q1012